createdAt,value
2022-10-14T00:01:19.023Z,10.99
2022-10-14T00:03:49.536Z,11.15
2022-10-14T00:06:22.076Z,10.66
2022-10-14T00:08:48.678Z,11.05
2022-10-14T00:11:19.127Z,11.09
2022-10-14T00:13:48.097Z,10.87
2022-10-14T00:16:27.799Z,11.20
2022-10-14T00:18:54.625Z,10.99
2022-10-14T00:21:21.742Z,11.16
2022-10-14T00:23:48.665Z,11.22
2022-10-14T00:26:22.331Z,11.15
2022-10-14T00:28:49.983Z,11.16
2022-10-14T00:31:17.795Z,11.15
2022-10-14T00:33:47.396Z,10.87
2022-10-14T00:36:16.617Z,11.18
2022-10-14T00:38:43.850Z,11.14
2022-10-14T00:41:13.864Z,11.03
2022-10-14T00:44:05.854Z,11.20
2022-10-14T00:46:35.877Z,11.22
2022-10-14T00:49:17.683Z,10.93
2022-10-14T00:51:49.262Z,10.87
2022-10-14T00:54:20.773Z,10.83
2022-10-14T00:56:48.175Z,11.21
2022-10-14T00:59:15.422Z,11.13
2022-10-14T01:01:42.503Z,11.32
2022-10-14T01:04:09.296Z,11.08
2022-10-14T01:06:53.616Z,10.98
2022-10-14T01:09:22.996Z,11.33
2022-10-14T01:12:27.030Z,11.24
2022-10-14T01:15:06.329Z,11.32
2022-10-14T01:18:03.928Z,11.34
2022-10-14T01:20:45.412Z,11.01
2022-10-14T01:23:45.739Z,11.28
2022-10-14T01:26:52.614Z,11.32
2022-10-14T01:29:43.669Z,11.29
2022-10-14T01:32:20.388Z,11.15
2022-10-14T01:35:16.719Z,11.10
2022-10-14T01:37:50.485Z,11.18
2022-10-14T01:40:30.372Z,10.66
2022-10-14T01:43:01.184Z,11.14
2022-10-14T01:45:30.668Z,11.19
2022-10-14T01:47:59.860Z,11.20
2022-10-14T01:50:31.606Z,11.43
2022-10-14T01:53:11.636Z,11.24
2022-10-14T01:55:46.897Z,11.44
2022-10-14T01:58:18.239Z,11.44
2022-10-14T02:00:47.781Z,11.04
2022-10-14T02:03:15.747Z,11.23
2022-10-14T02:06:00.644Z,11.19
2022-10-14T02:08:37.026Z,11.32
2022-10-14T02:11:14.493Z,11.32
2022-10-14T02:14:19.797Z,11.18
2022-10-14T02:17:05.853Z,11.23
2022-10-14T02:19:47.533Z,11.24
2022-10-14T02:22:30.556Z,11.23
2022-10-14T02:25:06.825Z,11.13
2022-10-14T02:27:35.350Z,11.20
2022-10-14T02:30:04.978Z,10.89
2022-10-14T02:32:33.509Z,11.28
2022-10-14T02:35:01.990Z,11.23
2022-10-14T02:37:30.679Z,11.29
2022-10-14T02:40:07.475Z,11.31
2022-10-14T02:42:34.574Z,11.17
2022-10-14T02:45:06.563Z,11.05
2022-10-14T02:47:36.575Z,11.11
2022-10-14T02:50:03.725Z,11.28
2022-10-14T02:52:31.830Z,11.32
2022-10-14T02:54:59.663Z,11.03
2022-10-14T02:57:26.416Z,11.18
2022-10-14T02:59:55.721Z,11.26
2022-10-14T03:02:24.422Z,10.95
2022-10-14T03:04:53.820Z,11.25
2022-10-14T03:07:20.970Z,11.39
2022-10-14T03:09:51.265Z,11.12
2022-10-14T03:12:20.320Z,11.26
2022-10-14T03:14:48.018Z,11.30
2022-10-14T03:17:17.162Z,11.09
2022-10-14T03:19:45.092Z,10.98
2022-10-14T03:22:14.477Z,11.47
2022-10-14T03:24:41.631Z,11.51
2022-10-14T03:27:24.860Z,11.20
2022-10-14T03:29:58.877Z,11.31
2022-10-14T03:32:26.787Z,11.52
2022-10-14T03:35:13.823Z,11.33
2022-10-14T03:37:46.186Z,11.42
2022-10-14T03:40:14.505Z,11.32
2022-10-14T03:42:41.994Z,11.11
2022-10-14T03:45:10.948Z,11.48
2022-10-14T03:47:39.434Z,11.21
2022-10-14T03:50:06.331Z,11.50
2022-10-14T03:52:55.757Z,11.39
2022-10-14T03:55:32.837Z,11.43
2022-10-14T03:57:59.733Z,11.25
2022-10-14T04:00:27.216Z,10.95
2022-10-14T04:03:08.726Z,11.06
2022-10-14T04:05:39.634Z,11.23
2022-10-14T04:08:18.262Z,11.28
2022-10-14T04:10:56.179Z,11.23
2022-10-14T04:13:24.778Z,11.22
2022-10-14T04:15:51.396Z,11.14
2022-10-14T04:18:22.494Z,10.53
2022-10-14T04:20:50.878Z,11.27
2022-10-14T04:23:21.304Z,11.31
2022-10-14T04:25:52.836Z,11.23
2022-10-14T04:28:20.343Z,11.08
2022-10-14T04:30:53.652Z,11.00
2022-10-14T04:33:27.374Z,10.87
2022-10-14T04:36:04.804Z,11.23
2022-10-14T04:38:38.949Z,11.24
2022-10-14T04:41:08.358Z,11.12
2022-10-14T04:43:35.301Z,10.91
2022-10-14T04:46:17.760Z,11.32
2022-10-14T04:48:47.796Z,11.36
2022-10-14T04:51:35.376Z,11.36
2022-10-14T04:54:02.081Z,10.60
2022-10-14T04:56:36.817Z,11.10
2022-10-14T04:59:05.500Z,10.89
2022-10-14T05:01:51.851Z,11.12
2022-10-14T05:04:18.851Z,10.86
2022-10-14T05:06:47.662Z,11.09
2022-10-14T05:09:17.494Z,11.19
2022-10-14T05:11:46.622Z,11.10
2022-10-14T05:14:17.040Z,11.20
2022-10-14T05:16:48.097Z,10.88
2022-10-14T05:19:19.800Z,10.86
2022-10-14T05:21:50.105Z,10.87
2022-10-14T05:24:25.382Z,10.94
2022-10-14T05:26:52.722Z,11.12
2022-10-14T05:29:19.471Z,10.70
2022-10-14T05:31:50.053Z,11.12
2022-10-14T05:34:24.477Z,11.11
2022-10-14T05:36:51.726Z,11.30
2022-10-14T05:39:20.134Z,11.11
2022-10-14T05:41:48.406Z,11.25
2022-10-14T05:44:19.921Z,11.37
2022-10-14T05:46:49.558Z,11.12
2022-10-14T05:49:16.505Z,11.14
2022-10-14T05:51:44.124Z,11.39
2022-10-14T05:54:17.646Z,11.30
2022-10-14T05:56:44.530Z,11.28
2022-10-14T05:59:11.622Z,11.22
2022-10-14T06:01:40.058Z,11.27
2022-10-14T06:04:06.992Z,11.36
2022-10-14T06:06:34.152Z,11.19
2022-10-14T06:09:00.862Z,11.30
2022-10-14T06:11:27.445Z,11.18
2022-10-14T06:13:54.248Z,11.07
2022-10-14T06:16:21.729Z,11.14
2022-10-14T06:18:52.280Z,10.93
2022-10-14T06:21:22.073Z,11.35
2022-10-14T06:23:48.767Z,11.12
2022-10-14T06:26:16.403Z,11.40
2022-10-14T06:28:43.173Z,11.27
2022-10-14T06:31:09.759Z,11.36
2022-10-14T06:33:36.600Z,11.25
2022-10-14T06:36:06.476Z,11.34
2022-10-14T06:38:33.301Z,11.40
2022-10-14T06:40:59.998Z,11.04
2022-10-14T06:43:27.447Z,11.00
2022-10-14T06:45:58.305Z,11.45
2022-10-14T06:48:24.825Z,11.24
2022-10-14T06:50:52.236Z,11.00
2022-10-14T06:53:19.464Z,11.57
2022-10-14T06:55:46.364Z,11.27
2022-10-14T06:58:14.948Z,11.03
2022-10-14T07:00:47.097Z,11.07
2022-10-14T07:03:18.705Z,11.30
2022-10-14T07:05:47.601Z,11.20
2022-10-14T07:08:15.571Z,11.33
2022-10-14T07:10:43.085Z,11.42
2022-10-14T07:13:09.694Z,11.61
2022-10-14T07:15:37.833Z,11.67
2022-10-14T07:18:06.298Z,11.63
2022-10-14T07:20:35.979Z,11.58
2022-10-14T07:23:02.656Z,11.34
2022-10-14T07:25:29.123Z,11.72
2022-10-14T07:27:55.824Z,11.64
2022-10-14T07:30:22.444Z,11.60
2022-10-14T07:32:49.265Z,11.65
2022-10-14T07:35:17.005Z,11.60
2022-10-14T07:37:43.568Z,11.63
2022-10-14T07:40:11.237Z,11.91
2022-10-14T07:42:38.118Z,11.69
2022-10-14T07:45:06.937Z,11.73
2022-10-14T07:47:33.937Z,11.78
2022-10-14T07:50:02.409Z,12.01
2022-10-14T07:52:29.304Z,11.93
2022-10-14T07:54:55.946Z,11.95
2022-10-14T07:57:24.246Z,11.68
2022-10-14T07:59:52.817Z,12.10
2022-10-14T08:02:19.555Z,11.84
2022-10-14T08:04:47.091Z,12.24
2022-10-14T08:07:17.121Z,12.08
2022-10-14T08:09:43.994Z,12.19
2022-10-14T08:12:11.168Z,11.54
2022-10-14T08:14:37.928Z,11.16
2022-10-14T08:17:04.604Z,12.08
2022-10-14T08:19:31.455Z,12.22
2022-10-14T08:21:58.213Z,11.48
2022-10-14T08:24:24.956Z,12.41
2022-10-14T08:26:54.866Z,12.73
2022-10-14T08:29:24.826Z,12.76
2022-10-14T08:31:52.789Z,12.75
2022-10-14T08:34:24.441Z,12.76
2022-10-14T08:36:52.071Z,12.65
2022-10-14T08:39:19.590Z,12.72
2022-10-14T08:42:25.328Z,12.73
2022-10-14T08:44:57.003Z,13.21
2022-10-14T08:47:31.404Z,13.06
2022-10-14T08:50:23.537Z,13.29
2022-10-14T08:53:01.014Z,13.38
2022-10-14T08:55:39.869Z,13.40
2022-10-14T08:58:31.803Z,13.45
2022-10-14T09:01:04.044Z,13.39
2022-10-14T09:03:34.785Z,12.93
2022-10-14T09:06:06.488Z,12.72
2022-10-14T09:08:40.593Z,12.96
2022-10-14T09:11:13.015Z,12.92
2022-10-14T09:13:43.364Z,13.08
2022-10-14T09:16:17.952Z,13.07
2022-10-14T09:18:53.897Z,13.08
2022-10-14T09:21:48.067Z,13.00
2022-10-14T09:24:32.402Z,13.04
2022-10-14T09:27:05.469Z,12.74
2022-10-14T09:29:46.312Z,12.86
2022-10-14T09:32:19.784Z,13.09
2022-10-14T09:34:49.777Z,12.95
2022-10-14T09:37:30.133Z,13.08
2022-10-14T09:40:01.640Z,12.84
2022-10-14T09:42:51.316Z,12.80
2022-10-14T09:45:22.560Z,12.71
2022-10-14T09:47:54.095Z,13.11
2022-10-14T09:50:48.433Z,12.96
2022-10-14T09:53:19.017Z,12.93
2022-10-14T09:55:49.508Z,12.81
2022-10-14T09:58:19.095Z,13.08
2022-10-14T10:00:46.174Z,13.04
2022-10-14T10:03:32.786Z,12.82
2022-10-14T10:06:10.342Z,13.32
2022-10-14T10:08:40.417Z,13.24
2022-10-14T10:11:11.238Z,13.39
2022-10-14T10:13:46.968Z,13.13
2022-10-14T10:16:35.087Z,13.39
2022-10-14T10:19:20.371Z,13.35
2022-10-14T10:21:47.899Z,13.23
2022-10-14T10:24:26.007Z,13.26
2022-10-14T10:26:55.236Z,12.99
2022-10-14T10:29:32.796Z,13.37
2022-10-14T10:32:14.309Z,13.35
2022-10-14T10:35:08.092Z,13.39
2022-10-14T10:37:53.022Z,13.23
2022-10-14T10:40:26.036Z,13.40
2022-10-14T10:43:04.800Z,13.05
2022-10-14T10:46:00.377Z,13.10
2022-10-14T10:48:47.706Z,13.56
2022-10-14T10:51:26.514Z,13.41
2022-10-14T10:54:25.312Z,13.37
2022-10-14T10:56:59.529Z,13.29
2022-10-14T10:59:56.605Z,13.30
2022-10-14T11:02:52.133Z,13.75
2022-10-14T11:05:48.749Z,13.63
2022-10-14T11:08:46.102Z,13.73
2022-10-14T11:11:49.503Z,13.62
2022-10-14T11:14:41.020Z,13.70
2022-10-14T11:20:31.561Z,13.48
2022-10-14T11:23:31.518Z,13.46
2022-10-14T11:26:07.234Z,12.88
2022-10-14T11:29:07.766Z,13.33
2022-10-14T11:31:42.903Z,13.22
2022-10-14T11:34:32.510Z,13.40
2022-10-14T11:37:51.327Z,13.46
2022-10-14T11:40:31.892Z,13.52
2022-10-14T11:43:32.967Z,13.56
2022-10-14T11:46:06.427Z,13.55
2022-10-14T11:49:09.655Z,13.58
2022-10-14T11:51:41.056Z,13.54
2022-10-14T11:54:17.162Z,13.59
2022-10-14T11:57:04.510Z,13.52
2022-10-14T12:00:01.313Z,13.54
2022-10-14T12:02:58.313Z,13.50
2022-10-14T12:05:38.484Z,13.37
2022-10-14T12:08:20.301Z,13.52
2022-10-14T12:10:49.974Z,13.54
2022-10-14T12:13:35.742Z,13.44
2022-10-14T12:16:04.024Z,13.58
2022-10-14T12:18:32.884Z,13.72
2022-10-14T12:21:15.889Z,13.72
2022-10-14T12:23:55.480Z,13.91
2022-10-14T12:26:25.875Z,13.97
2022-10-14T12:28:54.556Z,13.74
2022-10-14T12:31:32.348Z,13.91
2022-10-14T12:34:31.706Z,13.91
2022-10-14T12:36:59.769Z,13.54
2022-10-14T12:39:34.889Z,13.88
2022-10-14T12:42:11.285Z,13.83
2022-10-14T12:44:43.483Z,13.81
2022-10-14T12:47:24.862Z,13.75
2022-10-14T12:49:58.800Z,14.15
2022-10-14T12:52:29.047Z,14.16
2022-10-14T12:55:09.882Z,13.30
2022-10-14T12:57:41.531Z,14.29
2022-10-14T13:00:36.547Z,14.25
2022-10-14T13:03:06.041Z,14.37
2022-10-14T13:05:45.078Z,14.38
2022-10-14T13:08:21.023Z,14.29
2022-10-14T13:11:09.994Z,14.03
2022-10-14T13:13:52.511Z,14.21
2022-10-14T13:16:39.692Z,14.19
2022-10-14T13:19:50.512Z,13.64
2022-10-14T13:22:31.383Z,14.06
2022-10-14T13:25:28.292Z,13.07
2022-10-14T13:28:15.880Z,13.71
2022-10-14T13:30:59.070Z,14.05
2022-10-14T13:33:48.492Z,14.01
2022-10-14T13:36:24.451Z,13.99
2022-10-14T13:38:59.594Z,14.02
2022-10-14T13:41:30.689Z,13.94
2022-10-14T13:44:01.125Z,13.63
2022-10-14T13:46:41.262Z,13.93
2022-10-14T13:51:56.898Z,14.11
2022-10-14T13:54:30.656Z,14.14
2022-10-14T13:57:28.642Z,14.13
2022-10-14T14:02:40.229Z,13.93
2022-10-14T14:05:14.532Z,14.05
2022-10-14T14:10:30.401Z,14.25
2022-10-14T14:12:58.507Z,14.21
2022-10-14T14:15:29.024Z,14.27
2022-10-14T14:17:55.766Z,14.28
2022-10-14T14:20:25.308Z,13.62
2022-10-14T14:22:53.328Z,12.77
2022-10-14T14:25:38.163Z,14.09
2022-10-14T14:28:14.316Z,13.75
2022-10-14T14:30:54.583Z,13.17
2022-10-14T14:33:48.479Z,14.00
2022-10-14T14:36:27.440Z,13.89
2022-10-14T14:39:02.172Z,13.68
2022-10-14T14:41:30.815Z,14.01
2022-10-14T14:44:25.796Z,14.10
2022-10-14T14:46:57.976Z,14.04
2022-10-14T14:49:35.327Z,13.95
2022-10-14T14:52:03.569Z,13.86
2022-10-14T14:54:31.114Z,13.83
2022-10-14T14:57:06.174Z,13.65
2022-10-14T14:59:39.498Z,13.71
2022-10-14T15:02:21.712Z,13.88
2022-10-14T15:05:21.467Z,13.87
2022-10-14T15:07:49.918Z,14.02
2022-10-14T15:10:24.212Z,13.84
2022-10-14T15:12:56.514Z,13.92
2022-10-14T15:15:33.849Z,13.91
2022-10-14T15:18:05.040Z,14.06
2022-10-14T15:20:36.906Z,14.12
2022-10-14T15:23:40.945Z,14.16
2022-10-14T15:26:28.497Z,14.16
2022-10-14T15:29:10.628Z,14.14
2022-10-14T15:31:39.073Z,14.14
2022-10-14T15:34:14.674Z,13.92
2022-10-14T15:36:41.425Z,13.97
2022-10-14T15:39:14.446Z,13.81
2022-10-14T15:41:42.135Z,14.11
2022-10-14T15:44:11.486Z,14.17
2022-10-14T15:46:58.615Z,13.41
2022-10-14T15:49:36.260Z,14.13
2022-10-14T15:52:04.417Z,14.12
2022-10-14T15:54:31.189Z,14.03
2022-10-14T15:56:58.014Z,13.87
2022-10-14T15:59:25.604Z,13.98
2022-10-14T16:01:53.015Z,14.02
2022-10-14T16:04:26.704Z,14.01
2022-10-14T16:06:56.012Z,14.01
2022-10-14T16:09:23.854Z,13.97
2022-10-14T16:11:58.136Z,13.81
2022-10-14T16:14:27.027Z,13.71
2022-10-14T16:16:54.063Z,13.94
2022-10-14T16:19:20.738Z,13.78
2022-10-14T16:21:50.206Z,13.76
2022-10-14T16:24:19.200Z,13.81
2022-10-14T16:26:49.447Z,13.80
2022-10-14T16:29:20.484Z,13.82
2022-10-14T16:31:51.448Z,13.62
2022-10-14T16:34:19.975Z,13.66
2022-10-14T16:36:48.813Z,13.13
2022-10-14T16:39:16.822Z,13.67
2022-10-14T16:41:43.614Z,13.74
2022-10-14T16:44:24.974Z,13.65
2022-10-14T16:47:15.713Z,13.33
2022-10-14T16:49:45.061Z,13.36
2022-10-14T16:52:12.126Z,13.68
2022-10-14T16:54:38.631Z,13.53
2022-10-14T16:57:06.349Z,13.00
2022-10-14T16:59:33.197Z,13.25
2022-10-14T17:02:00.547Z,12.95
2022-10-14T17:04:27.647Z,13.08
2022-10-14T17:07:07.430Z,13.58
2022-10-14T17:09:36.750Z,13.45
2022-10-14T17:12:09.641Z,13.60
2022-10-14T17:14:40.890Z,13.48
2022-10-14T17:17:09.574Z,13.63
2022-10-14T17:19:36.345Z,13.28
2022-10-14T17:22:03.460Z,13.46
2022-10-14T17:24:30.657Z,13.16
2022-10-14T17:26:57.956Z,13.52
2022-10-14T17:29:24.703Z,13.40
2022-10-14T17:31:56.250Z,13.51
2022-10-14T17:34:23.477Z,12.55
2022-10-14T17:36:55.550Z,12.37
2022-10-14T17:39:27.629Z,13.16
2022-10-14T17:41:58.485Z,13.31
2022-10-14T17:44:25.055Z,13.08
2022-10-14T17:46:53.278Z,12.68
2022-10-14T17:49:19.838Z,13.07
2022-10-14T17:51:50.009Z,13.01
2022-10-14T17:54:18.491Z,12.97
2022-10-14T17:56:44.999Z,12.95
2022-10-14T17:59:14.211Z,12.97
2022-10-14T18:02:01.689Z,13.13
2022-10-14T18:04:29.193Z,12.95
2022-10-14T18:06:56.137Z,12.91
2022-10-14T18:09:22.676Z,12.96
2022-10-14T18:14:40.854Z,12.80
2022-10-14T18:17:10.825Z,12.74
2022-10-14T18:19:46.158Z,12.57
2022-10-14T18:22:14.569Z,12.73
2022-10-14T18:24:44.147Z,12.80
2022-10-14T18:27:11.614Z,12.49
2022-10-14T18:29:39.458Z,12.89
2022-10-14T18:32:14.816Z,12.90
2022-10-14T18:34:41.922Z,12.46
2022-10-14T18:37:08.547Z,12.78
2022-10-14T18:39:35.348Z,12.32
2022-10-14T18:42:03.104Z,12.57
2022-10-14T18:44:29.594Z,12.64
2022-10-14T18:46:56.894Z,12.68
2022-10-14T18:49:23.690Z,12.40
2022-10-14T18:51:50.515Z,12.54
2022-10-14T18:54:19.765Z,12.75
2022-10-14T18:56:47.382Z,12.67
2022-10-14T18:59:19.751Z,12.60
2022-10-14T19:01:48.063Z,12.61
2022-10-14T19:04:16.234Z,12.61
2022-10-14T19:06:49.506Z,12.33
2022-10-14T19:09:19.585Z,12.74
2022-10-14T19:11:58.091Z,12.43
2022-10-14T19:14:24.985Z,12.36
2022-10-14T19:16:51.589Z,11.56
2022-10-14T19:19:19.801Z,12.72
2022-10-14T19:21:50.255Z,12.74
2022-10-14T19:24:17.486Z,12.66
2022-10-14T19:26:46.241Z,12.46
2022-10-14T19:29:15.324Z,12.72
2022-10-14T19:31:43.827Z,12.46
2022-10-14T19:34:14.302Z,12.49
2022-10-14T19:36:43.243Z,12.74
2022-10-14T19:39:13.143Z,12.74
2022-10-14T19:41:43.277Z,12.34
2022-10-14T19:44:11.380Z,12.62
2022-10-14T19:46:41.573Z,12.64
2022-10-14T19:49:09.666Z,10.78
2022-10-14T19:51:36.384Z,12.51
2022-10-14T19:54:03.440Z,10.91
2022-10-14T19:56:31.276Z,11.66
2022-10-14T19:58:59.130Z,10.88
2022-10-14T20:01:30.585Z,12.44
2022-10-14T20:03:58.942Z,12.41
2022-10-14T20:06:27.465Z,12.35
2022-10-14T20:08:53.953Z,11.62
2022-10-14T20:11:23.456Z,12.61
2022-10-14T20:13:50.310Z,12.43
2022-10-14T20:16:18.486Z,12.24
2022-10-14T20:18:45.533Z,12.07
2022-10-14T20:21:16.214Z,12.09
2022-10-14T20:23:44.388Z,12.61
2022-10-14T20:26:14.925Z,12.27
2022-10-14T20:28:41.784Z,12.29
2022-10-14T20:31:10.927Z,12.45
2022-10-14T20:33:37.623Z,12.58
2022-10-14T20:36:07.630Z,12.01
2022-10-14T20:38:40.158Z,12.68
2022-10-14T20:41:23.136Z,12.49
2022-10-14T20:43:50.314Z,12.29
2022-10-14T20:46:17.429Z,12.68
2022-10-14T20:48:44.297Z,12.46
2022-10-14T20:51:16.241Z,12.64
2022-10-14T20:53:43.616Z,12.47
2022-10-14T20:56:12.454Z,12.17
2022-10-14T20:58:39.604Z,12.33
2022-10-14T21:01:17.104Z,12.15
2022-10-14T21:03:45.493Z,12.60
2022-10-14T21:06:18.589Z,12.48
2022-10-14T21:08:46.085Z,12.45
2022-10-14T21:11:20.535Z,12.40
2022-10-14T21:13:53.361Z,12.07
2022-10-14T21:16:24.564Z,12.54
2022-10-14T21:19:03.309Z,12.55
2022-10-14T21:21:34.133Z,12.55
2022-10-14T21:24:01.427Z,12.41
2022-10-14T21:26:29.555Z,12.64
2022-10-14T21:28:56.189Z,12.65
2022-10-14T21:31:23.033Z,12.60
2022-10-14T21:34:01.304Z,12.66
2022-10-14T21:36:31.709Z,12.66
2022-10-14T21:39:00.927Z,12.49
2022-10-14T21:41:30.786Z,12.54
2022-10-14T21:43:59.269Z,12.62
2022-10-14T21:46:26.670Z,12.70
2022-10-14T21:48:57.046Z,12.70
2022-10-14T21:51:26.151Z,12.54
2022-10-14T21:53:53.432Z,12.47
2022-10-14T21:56:20.554Z,12.43
2022-10-14T21:58:47.904Z,12.70
2022-10-14T22:01:23.487Z,12.69
2022-10-14T22:03:55.272Z,12.52
2022-10-14T22:06:22.422Z,12.74
2022-10-14T22:08:52.542Z,12.32
2022-10-14T22:11:22.827Z,12.67
2022-10-14T22:13:53.478Z,12.73
2022-10-14T22:16:20.734Z,12.20
2022-10-14T22:18:50.358Z,12.35
2022-10-14T22:21:19.527Z,12.62
2022-10-14T22:23:47.915Z,12.47
2022-10-14T22:26:17.787Z,12.30
2022-10-14T22:28:45.513Z,12.05
2022-10-14T22:31:15.997Z,12.59
2022-10-14T22:33:43.301Z,12.48
2022-10-14T22:36:13.122Z,12.69
2022-10-14T22:38:41.793Z,12.63
2022-10-14T22:41:11.786Z,12.63
2022-10-14T22:43:39.488Z,12.56
2022-10-14T22:46:07.998Z,12.70
2022-10-14T22:48:36.209Z,12.62
2022-10-14T22:51:09.629Z,12.69
2022-10-14T22:53:37.549Z,12.59
2022-10-14T22:56:14.853Z,12.72
2022-10-14T22:58:41.525Z,12.46
2022-10-14T23:01:13.588Z,12.22
2022-10-14T23:03:40.934Z,12.60
2022-10-14T23:06:10.680Z,12.65
2022-10-14T23:08:38.562Z,12.27
2022-10-14T23:11:06.447Z,12.63
2022-10-14T23:13:33.702Z,12.64
2022-10-14T23:16:05.561Z,12.55
2022-10-14T23:18:37.637Z,12.70
2022-10-14T23:21:09.338Z,12.74
2022-10-14T23:23:36.051Z,12.32
2022-10-14T23:26:03.024Z,12.63
2022-10-14T23:28:29.739Z,12.52
2022-10-14T23:30:59.907Z,12.50
2022-10-14T23:33:26.694Z,12.84
2022-10-14T23:35:53.351Z,12.78
2022-10-14T23:38:27.307Z,12.40
2022-10-14T23:40:55.371Z,12.32
2022-10-14T23:43:23.274Z,12.96
2022-10-14T23:45:53.166Z,12.57
2022-10-14T23:48:19.960Z,12.99
2022-10-14T23:50:49.288Z,12.30
2022-10-14T23:53:15.949Z,12.74
2022-10-14T23:55:49.072Z,13.11
2022-10-14T23:58:15.933Z,13.06
